sensor_id;sensor_type;location;lat;lon;timestamp;temperature;humidity
48575;DHT22;34352;51.084;3.712;2023-03-14T00:02:07;10.90;17.40
48575;DHT22;34352;51.084;3.712;2023-03-14T00:04:40;10.40;16.30
48575;DHT22;34352;51.084;3.712;2023-03-14T00:07:31;10.80;22.30
48575;DHT22;34352;51.084;3.712;2023-03-14T00:10:26;10.20;21.50
48575;DHT22;34352;51.084;3.712;2023-03-14T00:13:09;10.20;26.70
48575;DHT22;34352;51.084;3.712;2023-03-14T00:16:09;9.70;25.40
48575;DHT22;34352;51.084;3.712;2023-03-14T00:18:55;10.00;28.40
48575;DHT22;34352;51.084;3.712;2023-03-14T00:21:29;10.50;28.40
48575;DHT22;34352;51.084;3.712;2023-03-14T00:26:27;10.60;29.50
48575;DHT22;34352;51.084;3.712;2023-03-14T00:29:02;10.60;23.70
48575;DHT22;34352;51.084;3.712;2023-03-14T00:31:57;10.50;27.20
48575;DHT22;34352;51.084;3.712;2023-03-14T00:34:31;10.60;31.30
48575;DHT22;34352;51.084;3.712;2023-03-14T00:37:08;10.40;36.90
48575;DHT22;34352;51.084;3.712;2023-03-14T00:39:36;10.40;32.30
48575;DHT22;34352;51.084;3.712;2023-03-14T00:42:02;10.40;35.70
48575;DHT22;34352;51.084;3.712;2023-03-14T00:44:31;10.00;37.30
48575;DHT22;34352;51.084;3.712;2023-03-14T00:47:20;10.50;44.80
48575;DHT22;34352;51.084;3.712;2023-03-14T00:52:25;10.50;45.80
48575;DHT22;34352;51.084;3.712;2023-03-14T00:55:01;10.00;43.10
48575;DHT22;34352;51.084;3.712;2023-03-14T01:00:52;10.10;50.70
48575;DHT22;34352;51.084;3.712;2023-03-14T01:06:33;10.30;54.90
48575;DHT22;34352;51.084;3.712;2023-03-14T01:09:00;10.00;48.20
48575;DHT22;34352;51.084;3.712;2023-03-14T01:11:37;9.60;52.30
48575;DHT22;34352;51.084;3.712;2023-03-14T01:14:09;10.00;50.60
48575;DHT22;34352;51.084;3.712;2023-03-14T01:16:54;10.40;55.60
48575;DHT22;34352;51.084;3.712;2023-03-14T01:19:26;9.70;51.00
48575;DHT22;34352;51.084;3.712;2023-03-14T01:24:39;10.40;58.20
48575;DHT22;34352;51.084;3.712;2023-03-14T01:27:05;9.90;58.80
48575;DHT22;34352;51.084;3.712;2023-03-14T01:29:50;10.40;55.90
48575;DHT22;34352;51.084;3.712;2023-03-14T01:32:17;9.60;59.10
48575;DHT22;34352;51.084;3.712;2023-03-14T01:34:49;9.20;55.80
48575;DHT22;34352;51.084;3.712;2023-03-14T01:37:15;10.60;56.70
48575;DHT22;34352;51.084;3.712;2023-03-14T01:39:43;9.90;59.40
48575;DHT22;34352;51.084;3.712;2023-03-14T01:42:10;9.50;57.90
48575;DHT22;34352;51.084;3.712;2023-03-14T01:45:04;10.40;57.70
48575;DHT22;34352;51.084;3.712;2023-03-14T01:47:38;9.00;63.40
48575;DHT22;34352;51.084;3.712;2023-03-14T01:50:08;9.50;59.80
48575;DHT22;34352;51.084;3.712;2023-03-14T01:55:22;10.50;62.90
48575;DHT22;34352;51.084;3.712;2023-03-14T01:58:09;10.40;61.20
48575;DHT22;34352;51.084;3.712;2023-03-14T02:00:48;10.40;61.40
48575;DHT22;34352;51.084;3.712;2023-03-14T02:03:23;10.10;57.90
48575;DHT22;34352;51.084;3.712;2023-03-14T02:05:50;9.90;60.10
48575;DHT22;34352;51.084;3.712;2023-03-14T02:11:28;10.50;62.10
48575;DHT22;34352;51.084;3.712;2023-03-14T02:14:10;10.40;60.60
48575;DHT22;34352;51.084;3.712;2023-03-14T02:16:42;9.60;62.50
48575;DHT22;34352;51.084;3.712;2023-03-14T02:28:22;9.90;63.50
48575;DHT22;34352;51.084;3.712;2023-03-14T02:30:48;11.30;61.80
48575;DHT22;34352;51.084;3.712;2023-03-14T02:33:18;10.50;60.80
48575;DHT22;34352;51.084;3.712;2023-03-14T02:36:09;8.60;62.30
48575;DHT22;34352;51.084;3.712;2023-03-14T02:41:29;10.50;61.70
48575;DHT22;34352;51.084;3.712;2023-03-14T02:43:59;8.60;68.10
48575;DHT22;34352;51.084;3.712;2023-03-14T02:46:26;12.20;73.90
48575;DHT22;34352;51.084;3.712;2023-03-14T02:49:02;9.90;72.80
48575;DHT22;34352;51.084;3.712;2023-03-14T02:51:51;9.80;77.10
48575;DHT22;34352;51.084;3.712;2023-03-14T02:54:32;10.90;80.70
48575;DHT22;34352;51.084;3.712;2023-03-14T02:57:05;10.00;78.10
48575;DHT22;34352;51.084;3.712;2023-03-14T03:02:46;9.40;82.80
48575;DHT22;34352;51.084;3.712;2023-03-14T03:05:21;10.10;81.10
48575;DHT22;34352;51.084;3.712;2023-03-14T03:07:51;10.00;81.60
48575;DHT22;34352;51.084;3.712;2023-03-14T03:10:21;9.40;82.50
48575;DHT22;34352;51.084;3.712;2023-03-14T03:15:22;10.00;87.80
48575;DHT22;34352;51.084;3.712;2023-03-14T03:17:48;10.10;87.70
48575;DHT22;34352;51.084;3.712;2023-03-14T03:23:21;9.30;88.60
48575;DHT22;34352;51.084;3.712;2023-03-14T03:31:28;10.20;88.90
48575;DHT22;34352;51.084;3.712;2023-03-14T03:33:56;10.10;87.40
48575;DHT22;34352;51.084;3.712;2023-03-14T03:36:34;10.20;88.60
48575;DHT22;34352;51.084;3.712;2023-03-14T03:42:09;10.20;90.30
48575;DHT22;34352;51.084;3.712;2023-03-14T03:44:50;10.30;90.20
48575;DHT22;34352;51.084;3.712;2023-03-14T03:47:21;10.40;88.90
48575;DHT22;34352;51.084;3.712;2023-03-14T03:50:12;9.50;86.90
48575;DHT22;34352;51.084;3.712;2023-03-14T03:52:49;9.90;90.20
48575;DHT22;34352;51.084;3.712;2023-03-14T03:55:35;10.10;86.10
48575;DHT22;34352;51.084;3.712;2023-03-14T03:58:10;10.40;90.00
48575;DHT22;34352;51.084;3.712;2023-03-14T04:00:38;9.90;90.10
48575;DHT22;34352;51.084;3.712;2023-03-14T04:03:14;10.20;91.00
48575;DHT22;34352;51.084;3.712;2023-03-14T04:05:42;9.40;89.20
48575;DHT22;34352;51.084;3.712;2023-03-14T04:08:08;9.40;90.40
48575;DHT22;34352;51.084;3.712;2023-03-14T04:10:36;10.90;91.30
48575;DHT22;34352;51.084;3.712;2023-03-14T04:13:03;9.60;91.10
48575;DHT22;34352;51.084;3.712;2023-03-14T04:15:41;9.50;91.40
48575;DHT22;34352;51.084;3.712;2023-03-14T04:18:32;9.30;91.20
48575;DHT22;34352;51.084;3.712;2023-03-14T04:21:04;10.00;92.40
48575;DHT22;34352;51.084;3.712;2023-03-14T04:24:02;10.30;93.90
48575;DHT22;34352;51.084;3.712;2023-03-14T04:26:40;10.10;94.90
48575;DHT22;34352;51.084;3.712;2023-03-14T04:29:11;9.40;94.10
48575;DHT22;34352;51.084;3.712;2023-03-14T04:31:42;9.40;94.50
48575;DHT22;34352;51.084;3.712;2023-03-14T04:34:28;10.10;95.20
48575;DHT22;34352;51.084;3.712;2023-03-14T04:36:54;11.00;96.30
48575;DHT22;34352;51.084;3.712;2023-03-14T04:39:34;10.20;94.70
48575;DHT22;34352;51.084;3.712;2023-03-14T04:45:15;10.10;95.60
48575;DHT22;34352;51.084;3.712;2023-03-14T04:47:45;11.10;95.00
48575;DHT22;34352;51.084;3.712;2023-03-14T04:50:16;9.90;94.80
48575;DHT22;34352;51.084;3.712;2023-03-14T04:55:37;10.30;95.20
48575;DHT22;34352;51.084;3.712;2023-03-14T04:58:07;10.30;95.20
48575;DHT22;34352;51.084;3.712;2023-03-14T05:00:36;10.20;94.20
48575;DHT22;34352;51.084;3.712;2023-03-14T05:03:03;10.30;94.00
48575;DHT22;34352;51.084;3.712;2023-03-14T05:05:32;9.90;94.10
48575;DHT22;34352;51.084;3.712;2023-03-14T05:08:03;9.60;94.10
48575;DHT22;34352;51.084;3.712;2023-03-14T05:14:06;10.10;93.60
48575;DHT22;34352;51.084;3.712;2023-03-14T05:16:50;10.30;92.40
48575;DHT22;34352;51.084;3.712;2023-03-14T05:42:35;10.20;95.70
48575;DHT22;34352;51.084;3.712;2023-03-14T05:45:04;9.60;92.40
48575;DHT22;34352;51.084;3.712;2023-03-14T05:47:47;9.20;93.10
48575;DHT22;34352;51.084;3.712;2023-03-14T06:06:16;8.40;94.20
48575;DHT22;34352;51.084;3.712;2023-03-14T06:08:47;6.90;93.20
48575;DHT22;34352;51.084;3.712;2023-03-14T06:11:15;8.00;93.90
48575;DHT22;34352;51.084;3.712;2023-03-14T06:13:41;8.00;93.60
48575;DHT22;34352;51.084;3.712;2023-03-14T06:16:07;8.00;93.70
48575;DHT22;34352;51.084;3.712;2023-03-14T06:18:33;7.90;93.90
48575;DHT22;34352;51.084;3.712;2023-03-14T06:20:58;7.90;94.00
48575;DHT22;34352;51.084;3.712;2023-03-14T06:23:24;8.00;94.30
48575;DHT22;34352;51.084;3.712;2023-03-14T06:25:51;8.00;94.20
48575;DHT22;34352;51.084;3.712;2023-03-14T06:28:18;8.00;94.30
48575;DHT22;34352;51.084;3.712;2023-03-14T06:30:44;8.00;94.20
48575;DHT22;34352;51.084;3.712;2023-03-14T06:33:16;7.90;94.20
48575;DHT22;34352;51.084;3.712;2023-03-14T06:35:45;7.90;94.50
48575;DHT22;34352;51.084;3.712;2023-03-14T06:41:10;8.00;94.50
48575;DHT22;34352;51.084;3.712;2023-03-14T06:43:47;7.30;94.70
48575;DHT22;34352;51.084;3.712;2023-03-14T06:46:34;6.60;93.90
48575;DHT22;34352;51.084;3.712;2023-03-14T06:49:07;7.20;94.30
48575;DHT22;34352;51.084;3.712;2023-03-14T06:54:40;7.80;95.00
48575;DHT22;34352;51.084;3.712;2023-03-14T06:57:07;7.70;95.30
48575;DHT22;34352;51.084;3.712;2023-03-14T06:59:34;6.70;93.90
48575;DHT22;34352;51.084;3.712;2023-03-14T07:04:35;7.70;94.70
48575;DHT22;34352;51.084;3.712;2023-03-14T07:07:02;8.20;94.20
48575;DHT22;34352;51.084;3.712;2023-03-14T07:09:31;7.70;93.90
48575;DHT22;34352;51.084;3.712;2023-03-14T07:12:01;7.70;94.20
48575;DHT22;34352;51.084;3.712;2023-03-14T07:14:51;7.60;94.40
48575;DHT22;34352;51.084;3.712;2023-03-14T07:17:25;7.30;92.30
48575;DHT22;34352;51.084;3.712;2023-03-14T07:19:53;7.50;93.30
48575;DHT22;34352;51.084;3.712;2023-03-14T07:22:23;7.50;91.60
48575;DHT22;34352;51.084;3.712;2023-03-14T07:24:57;7.90;91.80
48575;DHT22;34352;51.084;3.712;2023-03-14T07:27:32;7.50;92.90
48575;DHT22;34352;51.084;3.712;2023-03-14T07:30:17;8.40;92.00
48575;DHT22;34352;51.084;3.712;2023-03-14T07:32:50;7.50;92.10
48575;DHT22;34352;51.084;3.712;2023-03-14T07:37:59;7.60;93.00
48575;DHT22;34352;51.084;3.712;2023-03-14T07:40:29;7.60;92.30
48575;DHT22;34352;51.084;3.712;2023-03-14T07:42:55;7.60;91.20
48575;DHT22;34352;51.084;3.712;2023-03-14T07:45:23;7.60;90.10
48575;DHT22;34352;51.084;3.712;2023-03-14T07:47:58;7.60;89.30
48575;DHT22;34352;51.084;3.712;2023-03-14T07:50:47;7.50;88.90
48575;DHT22;34352;51.084;3.712;2023-03-14T07:53:25;6.60;90.70
48575;DHT22;34352;51.084;3.712;2023-03-14T07:59:16;7.40;91.20
48575;DHT22;34352;51.084;3.712;2023-03-14T08:04:25;7.60;88.70
48575;DHT22;34352;51.084;3.712;2023-03-14T08:12:03;7.60;89.60
48575;DHT22;34352;51.084;3.712;2023-03-14T08:22:15;7.60;90.80
48575;DHT22;34352;51.084;3.712;2023-03-14T08:24:41;7.60;87.70
48575;DHT22;34352;51.084;3.712;2023-03-14T08:29:45;7.60;91.30
48575;DHT22;34352;51.084;3.712;2023-03-14T08:37:22;7.80;91.10
48575;DHT22;34352;51.084;3.712;2023-03-14T08:39:52;7.70;86.40
48575;DHT22;34352;51.084;3.712;2023-03-14T08:50:06;7.60;83.40
48575;DHT22;34352;51.084;3.712;2023-03-14T09:01:25;7.10;86.50
48575;DHT22;34352;51.084;3.712;2023-03-14T09:04:08;6.80;85.50
48575;DHT22;34352;51.084;3.712;2023-03-14T09:14:36;8.10;82.20
48575;DHT22;34352;51.084;3.712;2023-03-14T09:17:09;7.90;79.00
48575;DHT22;34352;51.084;3.712;2023-03-14T09:19:36;7.70;78.70
48575;DHT22;34352;51.084;3.712;2023-03-14T09:22:25;7.00;81.50
48575;DHT22;34352;51.084;3.712;2023-03-14T09:30:49;7.20;88.40
48575;DHT22;34352;51.084;3.712;2023-03-14T09:35:57;7.20;90.20
48575;DHT22;34352;51.084;3.712;2023-03-14T10:04:22;6.70;89.60
48575;DHT22;34352;51.084;3.712;2023-03-14T10:22:17;6.80;86.30
48575;DHT22;34352;51.084;3.712;2023-03-14T10:25:02;5.50;81.60
48575;DHT22;34352;51.084;3.712;2023-03-14T10:27:46;6.00;85.70
48575;DHT22;34352;51.084;3.712;2023-03-14T10:33:22;6.90;89.80
48575;DHT22;34352;51.084;3.712;2023-03-14T10:35:59;6.60;86.90
48575;DHT22;34352;51.084;3.712;2023-03-14T10:38:29;6.80;89.00
48575;DHT22;34352;51.084;3.712;2023-03-14T10:40:55;6.70;90.40
48575;DHT22;34352;51.084;3.712;2023-03-14T10:43:26;6.70;88.40
48575;DHT22;34352;51.084;3.712;2023-03-14T10:45:59;6.70;90.20
48575;DHT22;34352;51.084;3.712;2023-03-14T10:48:40;6.70;90.90
48575;DHT22;34352;51.084;3.712;2023-03-14T10:51:25;6.80;90.40
48575;DHT22;34352;51.084;3.712;2023-03-14T10:54:02;6.80;90.50
48575;DHT22;34352;51.084;3.712;2023-03-14T10:56:35;7.00;91.00
48575;DHT22;34352;51.084;3.712;2023-03-14T10:59:06;7.20;91.20
48575;DHT22;34352;51.084;3.712;2023-03-14T11:01:50;7.40;90.20
48575;DHT22;34352;51.084;3.712;2023-03-14T11:19:40;9.40;72.80
48575;DHT22;34352;51.084;3.712;2023-03-14T11:43:39;8.70;69.50
48575;DHT22;34352;51.084;3.712;2023-03-14T11:51:45;7.00;62.00
48575;DHT22;34352;51.084;3.712;2023-03-14T11:57:02;8.10;65.50
48575;DHT22;34352;51.084;3.712;2023-03-14T11:59:41;8.10;66.70
48575;DHT22;34352;51.084;3.712;2023-03-14T16:35:04;8.20;99.90
48575;DHT22;34352;51.084;3.712;2023-03-14T17:16:30;7.80;99.90
48575;DHT22;34352;51.084;3.712;2023-03-14T17:18:57;7.80;99.90
48575;DHT22;34352;51.084;3.712;2023-03-14T17:21:24;7.60;99.90
48575;DHT22;34352;51.084;3.712;2023-03-14T17:23:50;7.50;99.90
48575;DHT22;34352;51.084;3.712;2023-03-14T17:26:16;7.60;99.90
48575;DHT22;34352;51.084;3.712;2023-03-14T17:28:44;7.60;99.90
48575;DHT22;34352;51.084;3.712;2023-03-14T17:31:15;7.60;99.90
48575;DHT22;34352;51.084;3.712;2023-03-14T17:33:42;7.50;99.90
48575;DHT22;34352;51.084;3.712;2023-03-14T17:36:08;7.30;99.90
48575;DHT22;34352;51.084;3.712;2023-03-14T17:38:36;7.20;99.90
48575;DHT22;34352;51.084;3.712;2023-03-14T17:41:07;7.10;99.90
48575;DHT22;34352;51.084;3.712;2023-03-14T17:43:35;7.00;99.90
48575;DHT22;34352;51.084;3.712;2023-03-14T17:46:05;6.90;99.90
48575;DHT22;34352;51.084;3.712;2023-03-14T17:48:41;6.80;99.90
48575;DHT22;34352;51.084;3.712;2023-03-14T17:51:10;6.70;1.00
48575;DHT22;34352;51.084;3.712;2023-03-14T17:53:42;6.60;1.00
48575;DHT22;34352;51.084;3.712;2023-03-14T17:56:08;6.60;1.00
48575;DHT22;34352;51.084;3.712;2023-03-14T17:58:39;6.50;1.00
48575;DHT22;34352;51.084;3.712;2023-03-14T18:03:38;6.40;1.00
48575;DHT22;34352;51.084;3.712;2023-03-14T18:06:05;6.30;1.00
48575;DHT22;34352;51.084;3.712;2023-03-14T18:08:31;6.20;1.00
48575;DHT22;34352;51.084;3.712;2023-03-14T18:10:58;6.20;1.00
48575;DHT22;34352;51.084;3.712;2023-03-14T18:13:24;6.20;1.00
48575;DHT22;34352;51.084;3.712;2023-03-14T18:18:21;6.10;1.00
48575;DHT22;34352;51.084;3.712;2023-03-14T18:20:52;5.20;1.00
48575;DHT22;34352;51.084;3.712;2023-03-14T18:23:20;6.00;1.00
48575;DHT22;34352;51.084;3.712;2023-03-14T18:43:51;5.60;16.80
48575;DHT22;34352;51.084;3.712;2023-03-14T18:46:37;4.60;20.50
48575;DHT22;34352;51.084;3.712;2023-03-14T18:49:15;5.40;24.50
48575;DHT22;34352;51.084;3.712;2023-03-14T18:54:17;5.40;33.70
48575;DHT22;34352;51.084;3.712;2023-03-14T18:59:18;5.40;36.70
48575;DHT22;34352;51.084;3.712;2023-03-14T19:01:48;5.20;34.20
48575;DHT22;34352;51.084;3.712;2023-03-14T19:04:20;4.60;43.90
48575;DHT22;34352;51.084;3.712;2023-03-14T19:06:48;4.40;43.20
48575;DHT22;34352;51.084;3.712;2023-03-14T19:09:22;4.40;45.80
48575;DHT22;34352;51.084;3.712;2023-03-14T19:11:53;5.30;46.20
48575;DHT22;34352;51.084;3.712;2023-03-14T19:19:30;5.40;50.70
48575;DHT22;34352;51.084;3.712;2023-03-14T19:21:56;5.30;45.30
48575;DHT22;34352;51.084;3.712;2023-03-14T19:24:30;5.00;46.70
48575;DHT22;34352;51.084;3.712;2023-03-14T19:27:02;5.30;50.90
48575;DHT22;34352;51.084;3.712;2023-03-14T19:29:30;5.50;50.10
48575;DHT22;34352;51.084;3.712;2023-03-14T19:32:33;5.50;51.70
48575;DHT22;34352;51.084;3.712;2023-03-14T19:35:06;4.10;48.90
48575;DHT22;34352;51.084;3.712;2023-03-14T19:42:44;5.40;49.60
48575;DHT22;34352;51.084;3.712;2023-03-14T19:47:52;5.40;30.00
48575;DHT22;34352;51.084;3.712;2023-03-14T20:04:18;5.00;44.00
48575;DHT22;34352;51.084;3.712;2023-03-14T20:09:33;4.80;52.50
48575;DHT22;34352;51.084;3.712;2023-03-14T20:12:01;4.30;54.70
48575;DHT22;34352;51.084;3.712;2023-03-14T20:45:07;4.40;61.70
48575;DHT22;34352;51.084;3.712;2023-03-14T20:47:36;4.40;66.50
48575;DHT22;34352;51.084;3.712;2023-03-14T20:50:10;4.10;65.30
48575;DHT22;34352;51.084;3.712;2023-03-14T20:58:24;4.40;70.50
48575;DHT22;34352;51.084;3.712;2023-03-14T21:03:27;4.50;71.80
48575;DHT22;34352;51.084;3.712;2023-03-14T21:05:54;3.80;67.10
48575;DHT22;34352;51.084;3.712;2023-03-14T21:08:27;4.60;62.50
48575;DHT22;34352;51.084;3.712;2023-03-14T21:23:54;4.90;65.90
48575;DHT22;34352;51.084;3.712;2023-03-14T21:26:20;4.70;59.80
48575;DHT22;34352;51.084;3.712;2023-03-14T21:29:07;4.70;59.10
